sensor_id;sensor_type;location;lat;lon;timestamp;pressure;altitude;pressure_sealevel;temperature;humidity
69402;BME280;56589;51.992;5.924;2022-11-04T00:00:39;99472.31;;;10.46;82.05
69402;BME280;56589;51.992;5.924;2022-11-04T00:03:05;99475.38;;;10.51;81.65
69402;BME280;56589;51.992;5.924;2022-11-04T00:05:31;99479.41;;;10.55;81.97
69402;BME280;56589;51.992;5.924;2022-11-04T00:07:56;99484.41;;;10.58;81.85
69402;BME280;56589;51.992;5.924;2022-11-04T00:10:22;99498.25;;;10.61;81.54
69402;BME280;56589;51.992;5.924;2022-11-04T00:12:51;99503.59;;;10.59;82.03
69402;BME280;56589;51.992;5.924;2022-11-04T00:15:20;99501.94;;;10.58;81.53
69402;BME280;56589;51.992;5.924;2022-11-04T00:17:45;99494.34;;;10.55;81.75
69402;BME280;56589;51.992;5.924;2022-11-04T00:20:11;99498.75;;;10.54;81.47
69402;BME280;56589;51.992;5.924;2022-11-04T00:22:38;99498.03;;;10.52;81.84
69402;BME280;56589;51.992;5.924;2022-11-04T00:25:05;99499.13;;;10.50;81.35
69402;BME280;56589;51.992;5.924;2022-11-04T00:27:32;99501.19;;;10.46;81.76
69402;BME280;56589;51.992;5.924;2022-11-04T00:29:58;99510.97;;;10.44;81.85
69402;BME280;56589;51.992;5.924;2022-11-04T00:32:27;99512.78;;;10.44;81.59
69402;BME280;56589;51.992;5.924;2022-11-04T00:34:53;99515.53;;;10.42;81.78
69402;BME280;56589;51.992;5.924;2022-11-04T00:37:18;99518.97;;;10.43;81.80
69402;BME280;56589;51.992;5.924;2022-11-04T00:39:44;99525.88;;;10.44;81.96
69402;BME280;56589;51.992;5.924;2022-11-04T00:42:10;99512.91;;;10.42;82.02
69402;BME280;56589;51.992;5.924;2022-11-04T00:44:36;99526.13;;;10.41;81.85
69402;BME280;56589;51.992;5.924;2022-11-04T00:47:01;99511.63;;;10.37;81.91
69402;BME280;56589;51.992;5.924;2022-11-04T00:49:30;99530.09;;;10.35;81.84
69402;BME280;56589;51.992;5.924;2022-11-04T00:51:56;99532.03;;;10.33;81.73
69402;BME280;56589;51.992;5.924;2022-11-04T00:54:21;99532.28;;;10.30;81.96
69402;BME280;56589;51.992;5.924;2022-11-04T00:56:47;99538.75;;;10.26;81.37
69402;BME280;56589;51.992;5.924;2022-11-04T00:59:13;99537.47;;;10.20;81.56
69402;BME280;56589;51.992;5.924;2022-11-04T01:01:39;99538.78;;;10.15;81.26
69402;BME280;56589;51.992;5.924;2022-11-04T01:04:05;99541.78;;;10.10;81.53
69402;BME280;56589;51.992;5.924;2022-11-04T01:06:34;99543.97;;;10.05;80.98
69402;BME280;56589;51.992;5.924;2022-11-04T01:09:01;99539.34;;;9.97;80.81
69402;BME280;56589;51.992;5.924;2022-11-04T01:11:29;99546.03;;;9.90;80.60
69402;BME280;56589;51.992;5.924;2022-11-04T01:13:55;99537.84;;;9.84;80.97
69402;BME280;56589;51.992;5.924;2022-11-04T01:16:22;99545.38;;;9.77;80.87
69402;BME280;56589;51.992;5.924;2022-11-04T01:18:50;99546.81;;;9.70;80.53
69402;BME280;56589;51.992;5.924;2022-11-04T01:21:16;99553.38;;;9.64;80.75
69402;BME280;56589;51.992;5.924;2022-11-04T01:23:45;99566.84;;;9.60;80.70
69402;BME280;56589;51.992;5.924;2022-11-04T01:26:13;99574.38;;;9.53;80.53
69402;BME280;56589;51.992;5.924;2022-11-04T01:28:42;99573.88;;;9.48;80.61
69402;BME280;56589;51.992;5.924;2022-11-04T01:31:10;99586.50;;;9.43;80.75
69402;BME280;56589;51.992;5.924;2022-11-04T01:33:38;99584.16;;;9.40;80.43
69402;BME280;56589;51.992;5.924;2022-11-04T01:36:05;99599.25;;;9.36;80.65
69402;BME280;56589;51.992;5.924;2022-11-04T01:38:33;99596.19;;;9.31;80.29
69402;BME280;56589;51.992;5.924;2022-11-04T01:41:02;99597.25;;;9.29;80.40
69402;BME280;56589;51.992;5.924;2022-11-04T01:43:42;99594.88;;;9.26;80.51
69402;BME280;56589;51.992;5.924;2022-11-04T01:46:12;99594.13;;;9.23;80.69
69402;BME280;56589;51.992;5.924;2022-11-04T01:48:48;99587.22;;;9.22;80.60
69402;BME280;56589;51.992;5.924;2022-11-04T01:51:15;99596.75;;;9.23;80.36
69402;BME280;56589;51.992;5.924;2022-11-04T01:53:42;99601.03;;;9.25;80.78
69402;BME280;56589;51.992;5.924;2022-11-04T01:56:12;99606.88;;;9.28;80.67
69402;BME280;56589;51.992;5.924;2022-11-04T01:58:45;99607.84;;;9.27;80.81
69402;BME280;56589;51.992;5.924;2022-11-04T02:01:13;99611.16;;;9.29;80.75
69402;BME280;56589;51.992;5.924;2022-11-04T02:03:44;99619.75;;;9.31;80.60
69402;BME280;56589;51.992;5.924;2022-11-04T02:06:14;99618.69;;;9.34;81.08
69402;BME280;56589;51.992;5.924;2022-11-04T02:08:43;99618.56;;;9.35;80.69
69402;BME280;56589;51.992;5.924;2022-11-04T02:11:13;99630.59;;;9.38;81.09
69402;BME280;56589;51.992;5.924;2022-11-04T02:13:39;99638.19;;;9.41;81.28
69402;BME280;56589;51.992;5.924;2022-11-04T02:16:10;99643.31;;;9.42;81.17
69402;BME280;56589;51.992;5.924;2022-11-04T02:18:56;99649.38;;;9.43;81.44
69402;BME280;56589;51.992;5.924;2022-11-04T02:21:55;99640.69;;;9.42;81.48
69402;BME280;56589;51.992;5.924;2022-11-04T02:25:02;99645.94;;;9.42;81.73
69402;BME280;56589;51.992;5.924;2022-11-04T02:27:47;99645.09;;;9.42;81.34
69402;BME280;56589;51.992;5.924;2022-11-04T02:30:40;99652.13;;;9.41;81.50
69402;BME280;56589;51.992;5.924;2022-11-04T02:33:19;99651.19;;;9.42;81.38
69402;BME280;56589;51.992;5.924;2022-11-04T02:35:56;99651.09;;;9.44;81.76
69402;BME280;56589;51.992;5.924;2022-11-04T02:38:34;99653.44;;;9.47;81.49
69402;BME280;56589;51.992;5.924;2022-11-04T02:41:31;99654.97;;;9.49;81.93
69402;BME280;56589;51.992;5.924;2022-11-04T02:44:12;99663.72;;;9.50;81.64
69402;BME280;56589;51.992;5.924;2022-11-04T02:46:50;99662.75;;;9.51;81.65
69402;BME280;56589;51.992;5.924;2022-11-04T02:49:24;99667.84;;;9.53;81.68
69402;BME280;56589;51.992;5.924;2022-11-04T02:52:00;99661.09;;;9.50;81.50
69402;BME280;56589;51.992;5.924;2022-11-04T02:54:33;99664.63;;;9.49;81.72
69402;BME280;56589;51.992;5.924;2022-11-04T02:57:06;99666.41;;;9.48;81.39
69402;BME280;56589;51.992;5.924;2022-11-04T02:59:40;99665.59;;;9.48;81.70
69402;BME280;56589;51.992;5.924;2022-11-04T03:02:17;99668.22;;;9.48;81.25
69402;BME280;56589;51.992;5.924;2022-11-04T03:04:51;99672.88;;;9.44;81.24
69402;BME280;56589;51.992;5.924;2022-11-04T03:07:24;99680.81;;;9.43;81.61
69402;BME280;56589;51.992;5.924;2022-11-04T03:09:54;99690.38;;;9.44;82.03
69402;BME280;56589;51.992;5.924;2022-11-04T03:12:28;99700.94;;;9.42;81.57
69402;BME280;56589;51.992;5.924;2022-11-04T03:15:03;99711.22;;;9.45;81.85
69402;BME280;56589;51.992;5.924;2022-11-04T03:17:40;99706.69;;;9.47;81.80
69402;BME280;56589;51.992;5.924;2022-11-04T03:20:17;99719.66;;;9.49;81.45
69402;BME280;56589;51.992;5.924;2022-11-04T03:22:47;99717.66;;;9.53;81.75
69402;BME280;56589;51.992;5.924;2022-11-04T03:25:14;99722.88;;;9.53;81.59
69402;BME280;56589;51.992;5.924;2022-11-04T03:27:45;99723.72;;;9.53;81.60
69402;BME280;56589;51.992;5.924;2022-11-04T03:30:19;99730.50;;;9.56;81.77
69402;BME280;56589;51.992;5.924;2022-11-04T03:32:56;99733.84;;;9.58;81.49
69402;BME280;56589;51.992;5.924;2022-11-04T03:35:29;99733.84;;;9.58;81.39
69402;BME280;56589;51.992;5.924;2022-11-04T03:37:57;99726.13;;;9.56;81.63
69402;BME280;56589;51.992;5.924;2022-11-04T03:40:23;99734.06;;;9.55;81.44
69402;BME280;56589;51.992;5.924;2022-11-04T03:42:55;99737.44;;;9.57;81.42
69402;BME280;56589;51.992;5.924;2022-11-04T03:45:24;99739.94;;;9.58;81.43
69402;BME280;56589;51.992;5.924;2022-11-04T03:47:52;99733.84;;;9.58;81.23
69402;BME280;56589;51.992;5.924;2022-11-04T03:50:25;99743.25;;;9.60;81.21
69402;BME280;56589;51.992;5.924;2022-11-04T03:52:53;99738.97;;;9.59;81.60
69402;BME280;56589;51.992;5.924;2022-11-04T03:55:20;99744.34;;;9.58;81.34
69402;BME280;56589;51.992;5.924;2022-11-04T03:57:51;99743.59;;;9.56;81.40
69402;BME280;56589;51.992;5.924;2022-11-04T04:00:22;99749.09;;;9.53;81.36
69402;BME280;56589;51.992;5.924;2022-11-04T04:02:59;99745.97;;;9.47;81.15
69402;BME280;56589;51.992;5.924;2022-11-04T04:05:33;99745.97;;;9.47;81.36
69402;BME280;56589;51.992;5.924;2022-11-04T04:08:12;99751.34;;;9.46;81.32
69402;BME280;56589;51.992;5.924;2022-11-04T04:10:50;99759.41;;;9.43;81.36
69402;BME280;56589;51.992;5.924;2022-11-04T04:13:34;99763.94;;;9.41;81.02
69402;BME280;56589;51.992;5.924;2022-11-04T04:16:07;99770.16;;;9.40;81.19
69402;BME280;56589;51.992;5.924;2022-11-04T04:18:47;99762.41;;;9.38;81.38
69402;BME280;56589;51.992;5.924;2022-11-04T04:21:20;99756.22;;;9.39;81.21
69402;BME280;56589;51.992;5.924;2022-11-04T04:23:53;99767.53;;;9.40;80.79
69402;BME280;56589;51.992;5.924;2022-11-04T04:26:23;99767.53;;;9.40;80.84
69402;BME280;56589;51.992;5.924;2022-11-04T04:28:51;99765.03;;;9.38;80.83
69402;BME280;56589;51.992;5.924;2022-11-04T04:31:20;99767.66;;;9.38;80.92
69402;BME280;56589;51.992;5.924;2022-11-04T04:33:52;99765.38;;;9.34;80.69
69402;BME280;56589;51.992;5.924;2022-11-04T04:36:18;99772.53;;;9.32;80.55
69402;BME280;56589;51.992;5.924;2022-11-04T04:38:44;99772.72;;;9.29;80.60
69402;BME280;56589;51.992;5.924;2022-11-04T04:41:14;99771.06;;;9.28;81.02
69402;BME280;56589;51.992;5.924;2022-11-04T04:43:44;99774.66;;;9.27;80.66
69402;BME280;56589;51.992;5.924;2022-11-04T04:46:11;99784.16;;;9.28;80.85
69402;BME280;56589;51.992;5.924;2022-11-04T04:48:37;99781.66;;;9.26;80.76
69402;BME280;56589;51.992;5.924;2022-11-04T04:51:06;99791.41;;;9.24;80.79
69402;BME280;56589;51.992;5.924;2022-11-04T04:53:32;99789.75;;;9.23;80.80
69402;BME280;56589;51.992;5.924;2022-11-04T04:55:58;99789.81;;;9.21;80.94
69402;BME280;56589;51.992;5.924;2022-11-04T04:58:23;99789.81;;;9.21;80.59
69402;BME280;56589;51.992;5.924;2022-11-04T05:00:49;99789.00;;;9.21;80.86
69402;BME280;56589;51.992;5.924;2022-11-04T05:03:15;99795.28;;;9.18;80.52
69402;BME280;56589;51.992;5.924;2022-11-04T05:05:41;99787.66;;;9.15;80.24
69402;BME280;56589;51.992;5.924;2022-11-04T05:08:09;99783.50;;;9.13;80.15
69402;BME280;56589;51.992;5.924;2022-11-04T05:10:35;99782.16;;;9.07;80.08
69402;BME280;56589;51.992;5.924;2022-11-04T05:13:01;99788.56;;;9.03;80.42
69402;BME280;56589;51.992;5.924;2022-11-04T05:15:27;99787.34;;;8.96;80.04
69402;BME280;56589;51.992;5.924;2022-11-04T05:17:54;99783.53;;;8.89;80.41
69402;BME280;56589;51.992;5.924;2022-11-04T05:20:22;99780.50;;;8.82;80.10
69402;BME280;56589;51.992;5.924;2022-11-04T05:22:48;99778.56;;;8.73;80.29
69402;BME280;56589;51.992;5.924;2022-11-04T05:25:17;99776.50;;;8.65;80.53
69402;BME280;56589;51.992;5.924;2022-11-04T05:27:42;99786.44;;;8.60;80.24
69402;BME280;56589;51.992;5.924;2022-11-04T05:30:09;99792.97;;;8.55;80.37
69402;BME280;56589;51.992;5.924;2022-11-04T05:32:35;99794.34;;;8.48;80.58
69402;BME280;56589;51.992;5.924;2022-11-04T05:35:01;99810.34;;;8.43;80.74
69402;BME280;56589;51.992;5.924;2022-11-04T05:37:27;99822.72;;;8.41;80.53
69402;BME280;56589;51.992;5.924;2022-11-04T05:39:53;99822.91;;;8.38;80.43
69402;BME280;56589;51.992;5.924;2022-11-04T05:42:21;99829.09;;;8.37;80.70
69402;BME280;56589;51.992;5.924;2022-11-04T05:44:47;99828.25;;;8.36;80.72
69402;BME280;56589;51.992;5.924;2022-11-04T05:47:13;99822.91;;;8.38;80.89
69402;BME280;56589;51.992;5.924;2022-11-04T05:49:39;99828.97;;;8.38;80.94
69402;BME280;56589;51.992;5.924;2022-11-04T05:52:05;99834.22;;;8.38;80.88
69402;BME280;56589;51.992;5.924;2022-11-04T05:54:30;99836.94;;;8.37;80.82
69402;BME280;56589;51.992;5.924;2022-11-04T05:56:56;99848.34;;;8.36;80.90
69402;BME280;56589;51.992;5.924;2022-11-04T05:59:24;99847.63;;;8.34;81.32
69402;BME280;56589;51.992;5.924;2022-11-04T06:01:50;99857.16;;;8.35;80.87
69402;BME280;56589;51.992;5.924;2022-11-04T06:04:18;99854.66;;;8.33;80.91
69402;BME280;56589;51.992;5.924;2022-11-04T06:06:44;99863.31;;;8.34;81.05
69402;BME280;56589;51.992;5.924;2022-11-04T06:09:10;99871.19;;;8.34;81.38
69402;BME280;56589;51.992;5.924;2022-11-04T06:11:37;99865.84;;;8.35;81.52
69402;BME280;56589;51.992;5.924;2022-11-04T06:14:03;99861.13;;;8.40;81.70
69402;BME280;56589;51.992;5.924;2022-11-04T06:16:32;99862.66;;;8.43;81.34
69402;BME280;56589;51.992;5.924;2022-11-04T06:18:57;99866.13;;;8.43;81.35
69402;BME280;56589;51.992;5.924;2022-11-04T06:21:25;99872.19;;;8.44;81.26
69402;BME280;56589;51.992;5.924;2022-11-04T06:23:54;99882.66;;;8.44;81.65
69402;BME280;56589;51.992;5.924;2022-11-04T06:26:22;99877.34;;;8.46;81.27
69402;BME280;56589;51.992;5.924;2022-11-04T06:28:48;99884.94;;;8.49;81.54
69402;BME280;56589;51.992;5.924;2022-11-04T06:31:15;99885.78;;;8.49;81.34
69402;BME280;56589;51.992;5.924;2022-11-04T06:33:44;99888.22;;;8.52;81.50
69402;BME280;56589;51.992;5.924;2022-11-04T06:36:12;99887.44;;;8.50;81.39
69402;BME280;56589;51.992;5.924;2022-11-04T06:38:39;99892.91;;;8.47;81.00
69402;BME280;56589;51.992;5.924;2022-11-04T06:41:07;99889.78;;;8.42;80.90
69402;BME280;56589;51.992;5.924;2022-11-04T06:43:36;99897.22;;;8.35;81.10
69402;BME280;56589;51.992;5.924;2022-11-04T06:46:02;99900.13;;;8.31;81.40
69402;BME280;56589;51.992;5.924;2022-11-04T06:48:29;99902.03;;;8.29;81.14
69402;BME280;56589;51.992;5.924;2022-11-04T06:50:58;99905.47;;;8.29;81.56
69402;BME280;56589;51.992;5.924;2022-11-04T06:53:25;99901.91;;;8.30;81.48
69402;BME280;56589;51.992;5.924;2022-11-04T06:55:51;99899.31;;;8.30;81.24
69402;BME280;56589;51.992;5.924;2022-11-04T06:58:17;99901.91;;;8.30;81.47
69402;BME280;56589;51.992;5.924;2022-11-04T07:00:43;99913.44;;;8.28;81.33
69402;BME280;56589;51.992;5.924;2022-11-04T07:03:09;99914.34;;;8.27;81.50
69402;BME280;56589;51.992;5.924;2022-11-04T07:05:34;99928.38;;;8.26;81.33
69402;BME280;56589;51.992;5.924;2022-11-04T07:08:03;99920.66;;;8.24;81.08
69402;BME280;56589;51.992;5.924;2022-11-04T07:10:29;99921.47;;;8.25;80.90
69402;BME280;56589;51.992;5.924;2022-11-04T07:12:55;99930.28;;;8.24;81.14
69402;BME280;56589;51.992;5.924;2022-11-04T07:15:21;99922.63;;;8.21;81.45
69402;BME280;56589;51.992;5.924;2022-11-04T07:17:46;99923.38;;;8.23;81.10
69402;BME280;56589;51.992;5.924;2022-11-04T07:20:12;99923.50;;;8.21;81.08
69402;BME280;56589;51.992;5.924;2022-11-04T07:22:38;99926.72;;;8.25;81.17
69402;BME280;56589;51.992;5.924;2022-11-04T07:25:08;99930.16;;;8.25;81.38
69402;BME280;56589;51.992;5.924;2022-11-04T07:27:34;99921.38;;;8.26;81.05
69402;BME280;56589;51.992;5.924;2022-11-04T07:29:59;99928.19;;;8.29;81.21
69402;BME280;56589;51.992;5.924;2022-11-04T07:32:25;99935.91;;;8.30;81.09
69402;BME280;56589;51.992;5.924;2022-11-04T07:34:51;99940.09;;;8.33;81.38
69402;BME280;56589;51.992;5.924;2022-11-04T07:37:17;99938.22;;;8.35;81.56
69402;BME280;56589;51.992;5.924;2022-11-04T07:39:42;99940.63;;;8.38;81.66
69402;BME280;56589;51.992;5.924;2022-11-04T07:42:13;99941.25;;;8.41;81.09
69402;BME280;56589;51.992;5.924;2022-11-04T07:44:39;99938.53;;;8.43;81.23
69402;BME280;56589;51.992;5.924;2022-11-04T07:47:04;99939.25;;;8.45;81.58
69402;BME280;56589;51.992;5.924;2022-11-04T07:49:30;99939.16;;;8.47;81.57
69402;BME280;56589;51.992;5.924;2022-11-04T07:51:56;99945.97;;;8.49;81.26
69402;BME280;56589;51.992;5.924;2022-11-04T07:54:22;99942.19;;;8.53;81.55
69402;BME280;56589;51.992;5.924;2022-11-04T07:56:48;99951.19;;;8.62;81.39
69402;BME280;56589;51.992;5.924;2022-11-04T07:59:16;99955.16;;;8.67;81.43
69402;BME280;56589;51.992;5.924;2022-11-04T08:01:42;99956.50;;;8.73;81.75
69402;BME280;56589;51.992;5.924;2022-11-04T08:04:08;99963.41;;;8.74;81.17
69402;BME280;56589;51.992;5.924;2022-11-04T08:06:33;99970.22;;;8.77;81.33
69402;BME280;56589;51.992;5.924;2022-11-04T08:08:59;99965.72;;;8.79;80.95
69402;BME280;56589;51.992;5.924;2022-11-04T08:11:25;99969.16;;;8.79;80.93
69402;BME280;56589;51.992;5.924;2022-11-04T08:13:51;99968.22;;;8.80;81.06
69402;BME280;56589;51.992;5.924;2022-11-04T08:16:21;99975.25;;;8.80;80.95
69402;BME280;56589;51.992;5.924;2022-11-04T08:18:50;99981.41;;;8.79;80.63
69402;BME280;56589;51.992;5.924;2022-11-04T08:21:17;99988.44;;;8.78;80.71
69402;BME280;56589;51.992;5.924;2022-11-04T08:23:43;99993.69;;;8.78;80.90
69402;BME280;56589;51.992;5.924;2022-11-04T08:26:10;99991.88;;;8.79;81.21
69402;BME280;56589;51.992;5.924;2022-11-04T08:28:39;99994.50;;;8.79;81.27
69402;BME280;56589;51.992;5.924;2022-11-04T08:31:08;99987.38;;;8.81;81.32
69402;BME280;56589;51.992;5.924;2022-11-04T08:33:38;99992.41;;;8.84;81.29
69402;BME280;56589;51.992;5.924;2022-11-04T08:36:06;99996.47;;;8.88;81.39
69402;BME280;56589;51.992;5.924;2022-11-04T08:38:34;99995.56;;;8.89;80.87
69402;BME280;56589;51.992;5.924;2022-11-04T08:41:02;99993.78;;;8.89;80.84
69402;BME280;56589;51.992;5.924;2022-11-04T08:43:29;99998.06;;;8.90;81.15
69402;BME280;56589;51.992;5.924;2022-11-04T08:45:56;99998.59;;;8.95;81.23
69402;BME280;56589;51.992;5.924;2022-11-04T08:48:22;100005.25;;;9.00;80.67
69402;BME280;56589;51.992;5.924;2022-11-04T08:50:52;100004.09;;;9.04;80.81
69402;BME280;56589;51.992;5.924;2022-11-04T08:53:20;100019.19;;;9.13;80.94
69402;BME280;56589;51.992;5.924;2022-11-04T08:55:46;100018.63;;;9.20;80.78
69402;BME280;56589;51.992;5.924;2022-11-04T08:58:12;100029.44;;;9.29;80.67
69402;BME280;56589;51.992;5.924;2022-11-04T09:00:38;100031.84;;;9.32;80.52
69402;BME280;56589;51.992;5.924;2022-11-04T09:03:05;100037.56;;;9.37;80.87
69402;BME280;56589;51.992;5.924;2022-11-04T09:05:31;100035.28;;;9.45;81.04
69402;BME280;56589;51.992;5.924;2022-11-04T09:07:59;100039.72;;;9.56;80.74
69402;BME280;56589;51.992;5.924;2022-11-04T09:10:25;100041.91;;;9.62;80.62
69402;BME280;56589;51.992;5.924;2022-11-04T09:12:51;100041.47;;;9.68;80.17
69402;BME280;56589;51.992;5.924;2022-11-04T09:15:16;100041.88;;;9.74;80.17
69402;BME280;56589;51.992;5.924;2022-11-04T09:17:42;100045.81;;;9.80;80.06
69402;BME280;56589;51.992;5.924;2022-11-04T09:20:08;100051.47;;;9.87;80.22
69402;BME280;56589;51.992;5.924;2022-11-04T09:22:35;100056.16;;;9.94;80.22
69402;BME280;56589;51.992;5.924;2022-11-04T09:25:04;100061.28;;;9.96;79.75
69402;BME280;56589;51.992;5.924;2022-11-04T09:27:30;100059.16;;;10.01;79.74
69402;BME280;56589;51.992;5.924;2022-11-04T09:29:55;100064.16;;;10.04;79.57
69402;BME280;56589;51.992;5.924;2022-11-04T09:32:21;100070.25;;;10.04;79.55
69402;BME280;56589;51.992;5.924;2022-11-04T09:34:47;100083.16;;;10.08;79.33
69402;BME280;56589;51.992;5.924;2022-11-04T09:37:13;100079.56;;;10.09;79.56
69402;BME280;56589;51.992;5.924;2022-11-04T09:39:38;100082.06;;;10.10;79.10
69402;BME280;56589;51.992;5.924;2022-11-04T09:42:31;100079.44;;;10.10;79.58
69402;BME280;56589;51.992;5.924;2022-11-04T09:45:11;100089.94;;;10.10;79.08
69402;BME280;56589;51.992;5.924;2022-11-04T09:47:41;100088.78;;;10.14;79.23
69402;BME280;56589;51.992;5.924;2022-11-04T09:50:16;100099.78;;;10.19;79.70
69402;BME280;56589;51.992;5.924;2022-11-04T09:52:51;100098.50;;;10.25;79.49
69402;BME280;56589;51.992;5.924;2022-11-04T09:55:25;100103.50;;;10.28;78.84
69402;BME280;56589;51.992;5.924;2022-11-04T09:57:59;100107.72;;;10.30;79.02
69402;BME280;56589;51.992;5.924;2022-11-04T10:00:27;100113.16;;;10.27;78.67
69402;BME280;56589;51.992;5.924;2022-11-04T10:03:11;100113.41;;;10.24;78.83
69402;BME280;56589;51.992;5.924;2022-11-04T10:05:58;100114.25;;;10.25;78.68
69402;BME280;56589;51.992;5.924;2022-11-04T10:08:49;100115.06;;;10.25;78.61
69402;BME280;56589;51.992;5.924;2022-11-04T10:11:30;100120.44;;;10.24;78.21
69402;BME280;56589;51.992;5.924;2022-11-04T10:14:17;100121.03;;;10.27;78.79
69402;BME280;56589;51.992;5.924;2022-11-04T10:17:10;100117.84;;;10.35;78.73
69402;BME280;56589;51.992;5.924;2022-11-04T10:19:58;100126.00;;;10.43;78.80
69402;BME280;56589;51.992;5.924;2022-11-04T10:22:55;100129.13;;;10.48;78.52
69402;BME280;56589;51.992;5.924;2022-11-04T10:25:24;100123.31;;;10.56;78.79
69402;BME280;56589;51.992;5.924;2022-11-04T10:27:57;100128.69;;;10.66;78.78
69402;BME280;56589;51.992;5.924;2022-11-04T10:30:26;100127.19;;;10.74;78.58
69402;BME280;56589;51.992;5.924;2022-11-04T10:33:00;100138.91;;;10.81;78.46
69402;BME280;56589;51.992;5.924;2022-11-04T10:35:36;100135.72;;;10.89;78.30
69402;BME280;56589;51.992;5.924;2022-11-04T10:38:15;100142.41;;;10.93;77.63
69402;BME280;56589;51.992;5.924;2022-11-04T10:40:46;100146.56;;;10.96;77.62
69402;BME280;56589;51.992;5.924;2022-11-04T10:43:30;100145.53;;;10.98;77.70
69402;BME280;56589;51.992;5.924;2022-11-04T10:46:13;100147.78;;;11.03;77.67
69402;BME280;56589;51.992;5.924;2022-11-04T10:48:57;100147.09;;;11.12;77.78
69402;BME280;56589;51.992;5.924;2022-11-04T10:51:28;100148.06;;;11.22;77.64
69402;BME280;56589;51.992;5.924;2022-11-04T10:53:56;100137.78;;;11.30;77.36
69402;BME280;56589;51.992;5.924;2022-11-04T10:56:32;100143.28;;;11.38;77.19
69402;BME280;56589;51.992;5.924;2022-11-04T10:59:16;100130.63;;;11.44;77.15
69402;BME280;56589;51.992;5.924;2022-11-04T11:01:50;100130.50;;;11.45;76.29
69402;BME280;56589;51.992;5.924;2022-11-04T11:04:26;100135.06;;;11.43;76.28
69402;BME280;56589;51.992;5.924;2022-11-04T11:06:54;100136.50;;;11.47;76.34
69402;BME280;56589;51.992;5.924;2022-11-04T11:09:25;100133.75;;;11.49;75.97
69402;BME280;56589;51.992;5.924;2022-11-04T11:11:52;100139.59;;;11.52;75.96
69402;BME280;56589;51.992;5.924;2022-11-04T11:14:31;100141.84;;;11.57;76.04
69402;BME280;56589;51.992;5.924;2022-11-04T11:17:18;100138.88;;;11.61;76.24
69402;BME280;56589;51.992;5.924;2022-11-04T11:19:49;100143.03;;;11.64;75.60
69402;BME280;56589;51.992;5.924;2022-11-04T11:22:32;100145.44;;;11.67;75.79
69402;BME280;56589;51.992;5.924;2022-11-04T11:25:19;100146.88;;;11.71;74.96
69402;BME280;56589;51.992;5.924;2022-11-04T11:27:49;100150.09;;;11.75;75.68
69402;BME280;56589;51.992;5.924;2022-11-04T11:30:19;100147.09;;;11.79;75.35
69402;BME280;56589;51.992;5.924;2022-11-04T11:32:58;100152.09;;;11.82;75.45
69402;BME280;56589;51.992;5.924;2022-11-04T11:35:29;100141.47;;;11.84;74.85
69402;BME280;56589;51.992;5.924;2022-11-04T11:38:00;100140.75;;;11.82;74.93
69402;BME280;56589;51.992;5.924;2022-11-04T11:40:29;100156.09;;;11.77;74.21
69402;BME280;56589;51.992;5.924;2022-11-04T11:42:57;100157.41;;;11.71;74.44
69402;BME280;56589;51.992;5.924;2022-11-04T11:45:25;100159.06;;;11.72;74.98
69402;BME280;56589;51.992;5.924;2022-11-04T11:47:57;100160.38;;;11.78;75.10
69402;BME280;56589;51.992;5.924;2022-11-04T11:50:24;100169.09;;;11.89;75.50
69402;BME280;56589;51.992;5.924;2022-11-04T11:52:51;100165.50;;;12.02;74.94
69402;BME280;56589;51.992;5.924;2022-11-04T11:55:19;100169.88;;;12.12;75.07
69402;BME280;56589;51.992;5.924;2022-11-04T11:57:58;100168.34;;;12.21;74.38
69402;BME280;56589;51.992;5.924;2022-11-04T12:00:36;100164.81;;;12.32;74.02
69402;BME280;56589;51.992;5.924;2022-11-04T12:03:17;100168.38;;;12.42;73.90
69402;BME280;56589;51.992;5.924;2022-11-04T12:05:53;100176.63;;;12.49;73.31
69402;BME280;56589;51.992;5.924;2022-11-04T12:08:46;100187.16;;;12.49;73.14
69402;BME280;56589;51.992;5.924;2022-11-04T12:11:31;100188.13;;;12.48;73.21
69402;BME280;56589;51.992;5.924;2022-11-04T12:14:10;100194.72;;;12.42;72.90
69402;BME280;56589;51.992;5.924;2022-11-04T12:16:49;100198.69;;;12.36;73.42
69402;BME280;56589;51.992;5.924;2022-11-04T12:19:42;100205.38;;;12.40;73.27
69402;BME280;56589;51.992;5.924;2022-11-04T12:22:38;100206.00;;;12.33;72.70
69402;BME280;56589;51.992;5.924;2022-11-04T12:25:19;100208.72;;;12.31;72.98
69402;BME280;56589;51.992;5.924;2022-11-04T12:27:58;100202.53;;;12.32;72.58
69402;BME280;56589;51.992;5.924;2022-11-04T12:30:43;100210.03;;;12.37;72.44
69402;BME280;56589;51.992;5.924;2022-11-04T12:33:24;100217.84;;;12.38;72.79
69402;BME280;56589;51.992;5.924;2022-11-04T12:36:12;100221.16;;;12.40;72.81
69402;BME280;56589;51.992;5.924;2022-11-04T12:41:53;100229.06;;;12.40;72.42
69402;BME280;56589;51.992;5.924;2022-11-04T12:44:32;100228.94;;;12.42;72.78
69402;BME280;56589;51.992;5.924;2022-11-04T12:47:14;100227.13;;;12.42;72.13
69402;BME280;56589;51.992;5.924;2022-11-04T12:50:05;100234.91;;;12.44;72.33
69402;BME280;56589;51.992;5.924;2022-11-04T12:52:54;100231.34;;;12.45;72.22
69402;BME280;56589;51.992;5.924;2022-11-04T12:55:41;100237.53;;;12.44;72.01
69402;BME280;56589;51.992;5.924;2022-11-04T12:58:23;100241.41;;;12.40;71.75
69402;BME280;56589;51.992;5.924;2022-11-04T13:01:01;100240.66;;;12.38;71.99
69402;BME280;56589;51.992;5.924;2022-11-04T13:03:33;100238.91;;;12.38;71.68
69402;BME280;56589;51.992;5.924;2022-11-04T13:06:16;100235.31;;;12.39;71.53
69402;BME280;56589;51.992;5.924;2022-11-04T13:08:55;100236.00;;;12.41;71.56
69402;BME280;56589;51.992;5.924;2022-11-04T13:11:30;100245.44;;;12.44;71.17
69402;BME280;56589;51.992;5.924;2022-11-04T13:14:03;100239.47;;;12.42;71.44
69402;BME280;56589;51.992;5.924;2022-11-04T13:16:37;100247.84;;;12.47;71.70
69402;BME280;56589;51.992;5.924;2022-11-04T13:19:14;100250.94;;;12.52;71.49
69402;BME280;56589;51.992;5.924;2022-11-04T13:21:47;100254.16;;;12.56;71.19
69402;BME280;56589;51.992;5.924;2022-11-04T13:24:20;100262.88;;;12.56;71.18
69402;BME280;56589;51.992;5.924;2022-11-04T13:26:51;100270.09;;;12.54;71.50